createdAt,value
2022-08-25T00:01:58.404Z,100976.45
2022-08-25T00:07:05.410Z,100973.67
2022-08-25T00:12:12.245Z,100974.58
2022-08-25T00:17:19.549Z,100970.11
2022-08-25T00:22:25.718Z,100966.92
2022-08-25T00:27:31.650Z,100960.52
2022-08-25T00:32:37.722Z,100955.84
2022-08-25T00:37:43.629Z,100948.80
2022-08-25T00:42:49.690Z,100948.31
2022-08-25T00:47:56.672Z,100949.25
2022-08-25T00:53:07.299Z,100950.54
2022-08-25T00:58:16.849Z,100948.02
2022-08-25T01:03:31.618Z,100944.16
2022-08-25T01:08:41.638Z,100934.68
2022-08-25T01:13:53.032Z,100932.84
2022-08-25T01:19:00.597Z,100930.45
2022-08-25T01:24:09.846Z,100929.51
2022-08-25T01:29:21.821Z,100930.52
2022-08-25T01:34:30.266Z,100932.20
2022-08-25T01:39:36.917Z,100937.96
2022-08-25T01:44:45.353Z,100934.58
2022-08-25T01:49:51.314Z,100937.50
2022-08-25T01:54:57.413Z,100941.13
2022-08-25T02:00:04.594Z,100936.99
2022-08-25T02:05:20.391Z,100938.33
2022-08-25T02:10:29.110Z,100935.55
2022-08-25T02:15:35.361Z,100927.59
2022-08-25T02:20:41.753Z,100926.27
2022-08-25T02:25:47.637Z,100919.03
2022-08-25T02:30:58.746Z,100913.52
2022-08-25T02:36:08.955Z,100918.27
2022-08-25T02:41:17.994Z,100919.39
2022-08-25T02:46:25.093Z,100916.31
2022-08-25T02:51:32.012Z,100910.81
2022-08-25T02:56:38.216Z,100913.55
2022-08-25T03:01:44.286Z,100917.86
2022-08-25T03:06:50.522Z,100924.31
2022-08-25T03:11:56.378Z,100924.48
2022-08-25T03:17:02.542Z,100926.97
2022-08-25T03:22:08.354Z,100926.99
2022-08-25T03:27:14.566Z,100925.91
2022-08-25T03:32:20.551Z,100916.95
2022-08-25T03:37:26.735Z,100913.85
2022-08-25T03:42:32.687Z,100912.81
2022-08-25T03:47:40.398Z,100923.67
2022-08-25T03:52:50.475Z,100922.98
2022-08-25T03:57:57.554Z,100926.29
2022-08-25T04:03:03.639Z,100926.02
2022-08-25T04:08:09.933Z,100921.98
2022-08-25T04:13:15.714Z,100919.41
2022-08-25T04:18:21.785Z,100919.97
2022-08-25T04:23:27.961Z,100917.77
2022-08-25T04:28:33.688Z,100914.11
2022-08-25T04:33:40.542Z,100905.75
2022-08-25T04:38:48.274Z,100911.56
2022-08-25T04:43:57.443Z,100904.65
2022-08-25T04:49:04.571Z,100904.10
2022-08-25T04:54:13.208Z,100901.73
2022-08-25T04:59:19.973Z,100899.15
2022-08-25T05:04:28.252Z,100905.54
2022-08-25T05:09:37.738Z,100905.73
2022-08-25T05:14:43.762Z,100902.12
2022-08-25T05:19:49.561Z,100896.75
2022-08-25T05:24:55.552Z,100899.57
2022-08-25T05:30:01.582Z,100902.20
2022-08-25T05:35:08.996Z,100900.95
2022-08-25T05:40:15.096Z,100901.20
2022-08-25T05:45:21.172Z,100899.68
2022-08-25T05:50:27.667Z,100897.11
2022-08-25T05:55:33.463Z,100898.86
2022-08-25T06:00:40.910Z,100902.56
2022-08-25T06:05:47.201Z,100901.52
2022-08-25T06:10:54.789Z,100903.16
2022-08-25T06:16:03.848Z,100906.65
2022-08-25T06:21:14.767Z,100906.60
2022-08-25T06:26:21.567Z,100913.92
2022-08-25T06:31:26.399Z,100913.27
2022-08-25T06:36:32.411Z,100914.69
2022-08-25T06:41:39.036Z,100914.33
2022-08-25T06:46:45.298Z,100916.09
2022-08-25T06:51:51.168Z,100909.94
2022-08-25T06:56:57.424Z,100908.27
2022-08-25T07:02:06.319Z,100914.71
2022-08-25T07:07:12.739Z,100916.91
2022-08-25T07:12:18.784Z,100927.11
2022-08-25T07:17:24.876Z,100921.50
2022-08-25T07:22:30.915Z,100927.14
2022-08-25T07:27:36.952Z,100928.25
2022-08-25T07:32:43.589Z,100931.34
2022-08-25T07:37:49.750Z,100935.85
2022-08-25T07:42:58.390Z,100931.72
2022-08-25T07:48:09.610Z,100933.88
2022-08-25T07:53:17.002Z,100929.16
2022-08-25T07:58:22.958Z,100932.29
2022-08-25T08:03:45.300Z,100938.29
2022-08-25T08:08:57.799Z,100935.83
2022-08-25T08:14:05.616Z,100937.34
2022-08-25T08:19:11.451Z,100938.38
2022-08-25T08:24:40.830Z,100933.17
2022-08-25T08:29:43.993Z,100932.86
2022-08-25T08:34:51.385Z,100929.98
2022-08-25T08:40:01.488Z,100935.29
2022-08-25T08:45:24.619Z,100933.27
2022-08-25T08:50:37.647Z,100933.42
2022-08-25T08:55:52.628Z,100933.36
2022-08-25T09:01:02.082Z,100924.66
2022-08-25T09:06:13.788Z,100921.59
2022-08-25T09:16:01.565Z,100911.45
2022-08-25T09:21:16.424Z,100918.41
2022-08-25T09:26:36.136Z,100916.95
2022-08-25T09:31:45.173Z,100914.41
2022-08-25T09:36:53.416Z,100914.42
2022-08-25T09:42:00.966Z,100913.14
2022-08-25T09:47:15.721Z,100900.74
2022-08-25T09:52:36.229Z,100902.64
2022-08-25T09:57:56.177Z,100895.39
2022-08-25T10:03:10.918Z,100890.72
2022-08-25T10:08:32.049Z,100884.84
2022-08-25T10:13:44.480Z,100879.83
2022-08-25T10:19:03.140Z,100874.17
2022-08-25T10:24:11.319Z,100870.92
2022-08-25T10:29:32.518Z,100867.58
2022-08-25T10:34:46.481Z,100858.05
2022-08-25T10:40:11.124Z,100856.77
2022-08-25T10:45:41.153Z,100850.26
2022-08-25T10:50:51.579Z,100843.60
2022-08-25T10:56:07.254Z,100838.92
2022-08-25T11:01:28.217Z,100839.07
2022-08-25T11:06:43.425Z,100829.33
2022-08-25T11:11:57.084Z,100822.44
2022-08-25T11:17:10.352Z,100817.77
2022-08-25T11:22:23.254Z,100813.51
2022-08-25T11:27:37.522Z,100808.59
2022-08-25T11:32:51.036Z,100807.44
2022-08-25T11:38:16.230Z,100810.27
2022-08-25T11:43:40.778Z,100808.46
2022-08-25T11:49:02.353Z,100802.44
2022-08-25T11:54:21.402Z,100798.02
2022-08-25T12:00:02.177Z,100797.46
2022-08-25T12:05:52.890Z,100804.69
2022-08-25T12:11:02.014Z,100796.76
2022-08-25T12:16:37.759Z,100793.17
2022-08-25T12:21:45.976Z,100795.55
2022-08-25T12:26:58.739Z,100788.99
2022-08-25T12:32:18.999Z,100794.45
2022-08-25T12:37:27.690Z,100792.41
2022-08-25T12:42:37.007Z,100787.23
2022-08-25T12:47:47.610Z,100789.02
2022-08-25T12:52:56.281Z,100786.34
2022-08-25T12:58:04.989Z,100783.70
2022-08-25T13:09:38.400Z,100773.52
2022-08-25T13:14:50.541Z,100771.04
2022-08-25T13:20:18.072Z,100769.59
2022-08-25T13:25:32.456Z,100764.55
2022-08-25T13:31:32.096Z,100764.42
2022-08-25T13:37:06.364Z,100760.95
2022-08-25T13:42:17.647Z,100760.91
2022-08-25T13:47:45.269Z,100752.64
2022-08-25T13:52:56.208Z,100752.04
2022-08-25T13:58:24.809Z,100754.30
2022-08-25T14:03:41.731Z,100752.05
2022-08-25T14:09:14.173Z,100747.33
2022-08-25T14:14:47.990Z,100737.26
2022-08-25T14:19:57.964Z,100739.16
2022-08-25T14:25:30.431Z,100736.16
2022-08-25T14:30:43.381Z,100729.74
2022-08-25T14:36:08.136Z,100726.06
2022-08-25T14:41:28.294Z,100724.07
2022-08-25T14:46:50.146Z,100725.23
2022-08-25T14:51:56.493Z,100723.55
2022-08-25T14:57:04.724Z,100721.09
2022-08-25T15:02:19.954Z,100719.43
2022-08-25T15:07:51.419Z,100720.67
2022-08-25T15:12:58.296Z,100720.73
2022-08-25T15:18:05.503Z,100724.36
2022-08-25T15:23:12.125Z,100726.55
2022-08-25T15:28:20.776Z,100728.55
2022-08-25T15:33:26.801Z,100731.88
2022-08-25T15:38:32.787Z,100728.46
2022-08-25T15:43:39.765Z,100727.58
2022-08-25T15:48:46.302Z,100724.75
2022-08-25T15:53:52.234Z,100719.34
2022-08-25T15:58:58.414Z,100727.33
2022-08-25T16:04:04.894Z,100722.54
2022-08-25T16:09:10.987Z,100721.38
2022-08-25T16:14:17.116Z,100721.06
2022-08-25T16:19:22.927Z,100719.44
2022-08-25T16:24:28.992Z,100719.23
2022-08-25T16:29:37.230Z,100715.14
2022-08-25T16:34:44.214Z,100708.23
2022-08-25T16:39:55.685Z,100705.77
2022-08-25T16:45:02.099Z,100706.66
2022-08-25T16:50:11.972Z,100710.34
2022-08-25T16:55:18.595Z,100713.66
2022-08-25T17:00:26.819Z,100717.61
2022-08-25T17:05:34.014Z,100718.81
2022-08-25T17:10:42.213Z,100721.76
2022-08-25T17:15:52.427Z,100723.27
2022-08-25T17:21:00.871Z,100720.02
2022-08-25T17:26:14.746Z,100715.50
2022-08-25T17:31:21.253Z,100720.03
2022-08-25T17:36:27.595Z,100723.26
2022-08-25T17:41:33.664Z,100729.47
2022-08-25T17:46:47.420Z,100728.40
2022-08-25T17:51:53.850Z,100732.90
2022-08-25T17:56:59.823Z,100735.60
2022-08-25T18:02:06.086Z,100739.17
2022-08-25T18:07:13.863Z,100740.64
2022-08-25T18:12:19.588Z,100740.02
2022-08-25T18:17:25.949Z,100743.10
2022-08-25T18:22:32.241Z,100739.69
2022-08-25T18:27:39.402Z,100741.29
2022-08-25T18:32:45.348Z,100743.09
2022-08-25T18:38:10.298Z,100752.46
2022-08-25T18:43:17.630Z,100757.68
2022-08-25T18:48:26.525Z,100761.81
2022-08-25T18:53:37.553Z,100759.73
2022-08-25T18:58:56.074Z,100761.48
2022-08-25T19:04:02.472Z,100762.36
2022-08-25T19:09:08.503Z,100763.65
2022-08-25T19:14:15.020Z,100761.59
2022-08-25T19:19:24.537Z,100759.14
2022-08-25T19:24:31.218Z,100764.17
2022-08-25T19:29:37.055Z,100760.30
2022-08-25T19:34:47.154Z,100756.15
2022-08-25T19:39:57.542Z,100753.95
2022-08-25T19:45:05.127Z,100749.50
2022-08-25T19:50:16.644Z,100745.19
2022-08-25T19:55:25.908Z,100743.81
2022-08-25T20:00:34.237Z,100744.92
2022-08-25T20:05:43.351Z,100744.17
2022-08-25T20:10:49.597Z,100743.02
2022-08-25T20:15:58.746Z,100744.17
2022-08-25T20:21:05.454Z,100746.21
2022-08-25T20:26:11.613Z,100748.54
2022-08-25T20:31:17.864Z,100746.21
2022-08-25T20:36:25.464Z,100745.68
2022-08-25T20:41:31.314Z,100751.70
2022-08-25T20:46:37.592Z,100749.68
2022-08-25T20:51:44.531Z,100748.21
2022-08-25T20:56:57.245Z,100751.83
2022-08-25T21:02:14.260Z,100744.15
2022-08-25T21:07:23.809Z,100743.98
2022-08-25T21:12:41.382Z,100746.71
2022-08-25T21:17:54.410Z,100744.02
2022-08-25T21:23:02.468Z,100742.48
2022-08-25T21:28:09.022Z,100745.96
2022-08-25T21:33:15.411Z,100744.06
2022-08-25T21:38:29.637Z,100743.84
2022-08-25T21:43:35.658Z,100751.12
2022-08-25T21:48:46.561Z,100753.75
2022-08-25T21:54:09.114Z,100750.41
2022-08-25T21:59:17.225Z,100750.16
2022-08-25T22:04:23.219Z,100742.92
2022-08-25T22:09:30.441Z,100740.71
2022-08-25T22:14:38.039Z,100737.98
2022-08-25T22:19:45.612Z,100740.98
2022-08-25T22:24:52.419Z,100734.62
2022-08-25T22:29:59.136Z,100737.05
2022-08-25T22:35:07.239Z,100731.52
2022-08-25T22:40:38.617Z,100721.36
2022-08-25T22:45:43.536Z,100715.81
2022-08-25T22:52:52.017Z,100717.25
2022-08-25T22:57:58.199Z,100713.34
2022-08-25T23:03:04.482Z,100710.84
2022-08-25T23:08:13.545Z,100704.80
2022-08-25T23:13:33.903Z,100704.23
2022-08-25T23:18:43.862Z,100701.67
2022-08-25T23:23:50.094Z,100698.98
2022-08-25T23:28:56.346Z,100694.98
2022-08-25T23:34:02.891Z,100697.74
2022-08-25T23:39:09.196Z,100697.23
2022-08-25T23:44:17.360Z,100702.65
2022-08-25T23:49:25.047Z,100705.66
2022-08-25T23:54:31.661Z,100700.70
2022-08-25T23:59:38.378Z,100693.64
